Time;durP1;ratioP1;P1;durP2;ratioP2;P2;SDS_P1;SDS_P2;PMS_P1;PMS_P2;Temp;Humidity;BMP_temperature;BMP_pressure;BME280_temperature;BME280_humidity;BME280_pressure;Samples;Min_cycle;Max_cycle;Signal;HPM_P1;HPM_P2
2022/03/27 00:00:13;;;;;;;;;;;8.30;99.90;;;;;;5015376;28;19921;-68
2022/03/27 00:02:39;;;;;;;;;;;8.20;99.90;;;;;;5015775;28;19917;-68
2022/03/27 00:05:05;;;;;;;;;;;8.10;99.90;;;;;;5015500;28;19972;-68
2022/03/27 00:07:30;;;;;;;;;;;8.00;99.90;;;;;;5014163;28;19996;-68
2022/03/27 00:09:55;;;;;;;;;;;8.10;99.90;;;;;;5014994;28;19918;-68
2022/03/27 00:12:21;;;;;;;;;;;8.10;99.90;;;;;;5015567;28;19917;-68
2022/03/27 00:14:46;;;;;;;;;;;8.10;99.90;;;;;;5015396;28;19933;-68
2022/03/27 00:17:12;;;;;;;;;;;8.00;99.90;;;;;;5014007;28;19917;-68
2022/03/27 00:19:37;;;;;;;;;;;8.00;99.90;;;;;;5014813;28;20297;-69
2022/03/27 00:22:05;;;;;;;;;;;8.00;99.90;;;;;;5015256;28;19918;-68
2022/03/27 00:24:30;;;;;;;;;;;7.90;99.90;;;;;;5013756;28;19918;-68
2022/03/27 00:26:56;;;;;;;;;;;8.00;99.90;;;;;;5015010;28;19972;-68
2022/03/27 00:29:22;;;;;;;;;;;8.00;99.90;;;;;;5014869;28;19917;-68
2022/03/27 00:31:47;;;;;;;;;;;7.90;99.90;;;;;;5014922;28;19921;-68
2022/03/27 00:34:13;;;;;;;;;;;8.00;99.90;;;;;;5014901;28;19988;-68
2022/03/27 00:36:38;;;;;;;;;;;7.90;99.90;;;;;;5014922;28;19944;-68
2022/03/27 00:39:04;;;;;;;;;;;7.90;99.90;;;;;;5014434;28;20381;-68
2022/03/27 00:41:30;;;;;;;;;;;7.90;99.90;;;;;;5014598;28;19918;-68
2022/03/27 00:43:56;;;;;;;;;;;7.90;99.90;;;;;;5014853;28;20560;-68
2022/03/27 00:46:21;;;;;;;;;;;7.90;99.90;;;;;;5014904;28;19962;-68
2022/03/27 00:48:47;;;;;;;;;;;7.80;99.90;;;;;;5014283;28;19940;-68
2022/03/27 00:51:12;;;;;;;;;;;7.80;99.90;;;;;;5014650;28;20296;-68
2022/03/27 00:53:38;;;;;;;;;;;7.70;99.90;;;;;;5014603;28;20426;-68
2022/03/27 00:56:04;;;;;;;;;;;7.80;99.90;;;;;;5014642;28;19921;-67
2022/03/27 00:58:29;;;;;;;;;;;7.70;99.90;;;;;;5014428;28;19983;-68
2022/03/27 01:00:56;;;;;;;;;;;7.70;99.90;;;;;;5014480;28;19917;-68
2022/03/27 01:03:26;;;;;;;;;;;7.70;99.90;;;;;;5010875;28;19921;-68
2022/03/27 01:05:52;;;;;;;;;;;7.70;99.90;;;;;;5028931;28;19923;-68
2022/03/27 01:09:35;;;;;;;;;;;7.70;99.90;;;;;;5033894;28;19928;-68
2022/03/27 01:11:12;;;;;;;;;;;7.70;99.90;;;;;;5033903;28;20284;-68
2022/03/27 01:13:39;;;;;;;;;;;7.60;99.90;;;;;;5034104;28;19932;-68
2022/03/27 01:16:09;;;;;;;;;;;7.60;99.90;;;;;;5032840;28;20506;-67
2022/03/27 01:18:35;;;;;;;;;;;7.60;99.90;;;;;;5033443;28;19959;-68
2022/03/27 01:21:00;;;;;;;;;;;7.60;99.90;;;;;;5034085;28;20329;-67
2022/03/27 01:23:26;;;;;;;;;;;7.50;99.90;;;;;;5034087;28;19917;-68
2022/03/27 01:25:51;;;;;;;;;;;7.50;99.90;;;;;;5033936;28;19917;-68
2022/03/27 01:28:17;;;;;;;;;;;7.50;99.90;;;;;;5033726;28;20380;-68
2022/03/27 01:30:42;;;;;;;;;;;7.50;99.90;;;;;;5033638;28;19917;-68
2022/03/27 01:33:13;;;;;;;;;;;7.40;99.90;;;;;;5033605;28;20380;-68
2022/03/27 01:35:38;;;;;;;;;;;7.50;99.90;;;;;;5032736;28;19995;-68
2022/03/27 01:38:04;;;;;;;;;;;7.40;99.90;;;;;;5033575;28;19925;-68
2022/03/27 01:40:30;;;;;;;;;;;7.40;99.90;;;;;;5033307;28;19917;-68
2022/03/27 01:42:55;;;;;;;;;;;7.40;99.90;;;;;;5033500;28;20396;-68
2022/03/27 01:45:21;;;;;;;;;;;7.30;99.90;;;;;;5033512;28;19979;-68
2022/03/27 01:47:47;;;;;;;;;;;7.30;99.90;;;;;;5032264;28;19921;-68
2022/03/27 01:50:13;;;;;;;;;;;7.20;99.90;;;;;;5032911;28;19924;-68
2022/03/27 01:52:38;;;;;;;;;;;7.20;99.90;;;;;;5031975;28;19999;-68
2022/03/27 01:55:07;;;;;;;;;;;7.20;99.90;;;;;;5033413;28;19948;-69
2022/03/27 01:57:33;;;;;;;;;;;7.10;99.90;;;;;;5033371;28;19917;-68
2022/03/27 01:59:58;;;;;;;;;;;7.20;99.90;;;;;;5032857;28;19924;-68
2022/03/27 02:02:24;;;;;;;;;;;7.10;99.90;;;;;;5033027;28;20000;-68
2022/03/27 02:04:50;;;;;;;;;;;7.10;99.90;;;;;;5032124;28;20368;-69
2022/03/27 02:07:16;;;;;;;;;;;7.10;99.90;;;;;;5033253;28;19963;-68
2022/03/27 02:09:41;;;;;;;;;;;7.10;99.90;;;;;;5032828;28;19960;-68
2022/03/27 02:12:07;;;;;;;;;;;7.00;99.90;;;;;;5033149;28;20032;-68
2022/03/27 02:14:32;;;;;;;;;;;7.00;99.90;;;;;;5032570;28;19967;-68
2022/03/27 02:16:58;;;;;;;;;;;7.00;99.90;;;;;;5032796;28;20261;-68
2022/03/27 02:19:23;;;;;;;;;;;7.00;99.90;;;;;;5032672;28;19933;-68
2022/03/27 02:21:49;;;;;;;;;;;7.10;99.90;;;;;;5032782;28;19977;-68
2022/03/27 02:24:14;;;;;;;;;;;7.10;99.90;;;;;;5032917;28;19921;-68
2022/03/27 02:26:45;;;;;;;;;;;7.10;99.90;;;;;;5031628;28;20001;-68
2022/03/27 02:29:14;;;;;;;;;;;7.10;99.90;;;;;;5032259;28;19963;-68
2022/03/27 02:31:39;;;;;;;;;;;7.00;99.90;;;;;;5032405;28;20019;-68
2022/03/27 02:34:05;;;;;;;;;;;7.00;99.90;;;;;;5032676;28;20020;-68
2022/03/27 02:36:31;;;;;;;;;;;7.00;99.90;;;;;;5032589;28;19924;-68
2022/03/27 02:38:56;;;;;;;;;;;7.00;99.90;;;;;;5030843;28;19917;-68
2022/03/27 02:41:21;;;;;;;;;;;7.10;99.90;;;;;;5032436;28;19924;-68
2022/03/27 02:43:47;;;;;;;;;;;7.10;99.90;;;;;;5032349;28;20012;-68
2022/03/27 02:46:12;;;;;;;;;;;7.00;99.90;;;;;;5032070;28;19924;-68
2022/03/27 02:48:38;;;;;;;;;;;7.00;99.90;;;;;;5032101;28;19917;-68
2022/03/27 02:51:03;;;;;;;;;;;7.10;99.90;;;;;;5032237;28;19934;-68
2022/03/27 02:53:29;;;;;;;;;;;7.00;99.90;;;;;;5032261;28;20376;-68
2022/03/27 02:55:54;;;;;;;;;;;7.00;99.90;;;;;;5032276;28;19917;-68
2022/03/27 02:58:20;;;;;;;;;;;7.00;99.90;;;;;;5031867;28;19963;-68
2022/03/27 03:00:46;;;;;;;;;;;6.90;99.90;;;;;;5031753;28;19928;-68
2022/03/27 03:03:13;;;;;;;;;;;6.90;99.90;;;;;;5032180;28;19923;-69
2022/03/27 03:05:39;;;;;;;;;;;6.80;99.90;;;;;;5032156;28;19924;-68
2022/03/27 03:08:06;;;;;;;;;;;6.80;99.90;;;;;;5032036;28;19925;-68
2022/03/27 03:10:32;;;;;;;;;;;6.80;99.90;;;;;;5031635;28;19917;-68
2022/03/27 03:12:58;;;;;;;;;;;6.70;99.90;;;;;;5031792;28;19963;-68
2022/03/27 03:15:23;;;;;;;;;;;6.70;99.90;;;;;;5031731;28;20336;-68
2022/03/27 03:17:49;;;;;;;;;;;6.70;99.90;;;;;;5031977;28;19921;-68
2022/03/27 03:20:15;;;;;;;;;;;6.70;99.90;;;;;;5031506;28;19917;-69
2022/03/27 03:22:40;;;;;;;;;;;6.70;99.90;;;;;;5031854;28;19924;-68
2022/03/27 03:25:06;;;;;;;;;;;6.70;99.90;;;;;;5031247;28;19978;-69
2022/03/27 03:27:32;;;;;;;;;;;6.80;99.90;;;;;;5031749;28;20005;-68
2022/03/27 03:29:58;;;;;;;;;;;6.80;99.90;;;;;;5030015;28;20327;-68
2022/03/27 03:32:23;;;;;;;;;;;6.70;99.90;;;;;;5031741;28;20296;-68
2022/03/27 03:34:49;;;;;;;;;;;6.80;99.90;;;;;;5013943;28;19932;-68
2022/03/27 03:37:14;;;;;;;;;;;6.70;99.90;;;;;;5032602;28;20017;-68
2022/03/27 03:39:40;;;;;;;;;;;6.70;99.90;;;;;;5036634;28;19917;-68
2022/03/27 03:42:06;;;;;;;;;;;6.80;99.90;;;;;;5035684;28;19924;-68
2022/03/27 03:44:31;;;;;;;;;;;6.70;99.90;;;;;;5035979;28;20265;-68
2022/03/27 03:46:57;;;;;;;;;;;6.70;99.90;;;;;;5033809;28;19920;-68
2022/03/27 03:49:24;;;;;;;;;;;6.70;99.90;;;;;;5029611;28;19921;-69
2022/03/27 03:51:49;;;;;;;;;;;6.50;99.90;;;;;;5031459;28;19921;-68
2022/03/27 03:54:14;;;;;;;;;;;6.50;99.90;;;;;;5031327;28;20007;-69
2022/03/27 03:56:40;;;;;;;;;;;6.40;99.90;;;;;;5031373;28;20415;-68
2022/03/27 03:59:05;;;;;;;;;;;6.40;99.90;;;;;;5030870;28;19971;-68
2022/03/27 04:01:31;;;;;;;;;;;6.40;99.90;;;;;;5030011;28;19917;-68
2022/03/27 04:03:56;;;;;;;;;;;6.40;99.90;;;;;;5031437;28;20055;-69
2022/03/27 04:06:22;;;;;;;;;;;6.50;99.90;;;;;;5031368;28;19917;-69
2022/03/27 04:08:47;;;;;;;;;;;6.40;99.90;;;;;;5031029;28;19917;-68
2022/03/27 04:11:16;;;;;;;;;;;6.40;99.90;;;;;;5031312;28;19923;-68
2022/03/27 04:13:43;;;;;;;;;;;6.30;99.90;;;;;;5031027;28;19921;-68
2022/03/27 04:16:09;;;;;;;;;;;6.20;99.90;;;;;;5030177;28;19945;-68
2022/03/27 04:18:35;;;;;;;;;;;6.30;99.90;;;;;;5030874;28;20027;-68
2022/03/27 04:21:00;;;;;;;;;;;6.20;99.90;;;;;;5031253;28;20004;-68
2022/03/27 04:23:25;;;;;;;;;;;6.20;99.90;;;;;;5031184;28;19917;-69
2022/03/27 04:25:51;;;;;;;;;;;6.20;99.90;;;;;;5031205;28;20432;-68
2022/03/27 04:28:16;;;;;;;;;;;6.10;99.90;;;;;;5030760;28;19991;-69
2022/03/27 04:30:42;;;;;;;;;;;6.10;99.90;;;;;;5030960;28;19917;-69
2022/03/27 04:33:08;;;;;;;;;;;6.00;99.90;;;;;;5031074;28;19921;-68
2022/03/27 04:35:34;;;;;;;;;;;5.90;99.90;;;;;;5031182;28;19917;-68
2022/03/27 04:38:00;;;;;;;;;;;6.00;99.90;;;;;;5033122;28;19960;-69
2022/03/27 04:40:25;;;;;;;;;;;6.00;99.90;;;;;;5034415;28;19952;-68
2022/03/27 04:42:51;;;;;;;;;;;5.90;99.90;;;;;;5034691;28;19940;-68
2022/03/27 04:45:17;;;;;;;;;;;5.90;99.90;;;;;;5034858;28;20427;-68
2022/03/27 04:47:42;;;;;;;;;;;6.00;99.90;;;;;;5034925;28;19924;-69
2022/03/27 04:50:09;;;;;;;;;;;6.00;99.90;;;;;;5035835;28;19917;-68
2022/03/27 04:52:34;;;;;;;;;;;5.90;99.90;;;;;;5040190;28;19921;-69
2022/03/27 04:55:00;;;;;;;;;;;6.00;99.90;;;;;;5039913;28;19932;-68
2022/03/27 04:57:31;;;;;;;;;;;5.90;99.90;;;;;;5040133;28;19960;-68
2022/03/27 04:59:57;;;;;;;;;;;6.00;99.90;;;;;;5035195;28;20423;-69
2022/03/27 05:02:23;;;;;;;;;;;6.00;99.90;;;;;;5016944;28;19982;-69
2022/03/27 05:04:48;;;;;;;;;;;6.00;99.90;;;;;;5034617;28;19917;-69
2022/03/27 05:07:14;;;;;;;;;;;6.00;99.90;;;;;;5034307;28;19921;-69
2022/03/27 05:09:39;;;;;;;;;;;6.00;99.90;;;;;;5033494;28;20388;-68
2022/03/27 05:12:05;;;;;;;;;;;5.90;99.90;;;;;;5034128;28;20343;-69
2022/03/27 05:14:30;;;;;;;;;;;5.90;99.90;;;;;;5033935;28;19987;-68
2022/03/27 05:16:56;;;;;;;;;;;5.90;99.90;;;;;;5032067;28;19924;-69
2022/03/27 05:19:21;;;;;;;;;;;5.80;99.90;;;;;;5029786;28;20456;-68
2022/03/27 05:21:47;;;;;;;;;;;5.80;99.90;;;;;;5031574;28;19964;-69
2022/03/27 05:24:13;;;;;;;;;;;5.90;99.90;;;;;;5033974;28;19962;-68
2022/03/27 05:26:39;;;;;;;;;;;5.90;99.90;;;;;;5032801;28;20428;-68
2022/03/27 05:29:06;;;;;;;;;;;5.90;99.90;;;;;;5032322;28;19928;-69
2022/03/27 05:31:32;;;;;;;;;;;5.90;99.90;;;;;;5034010;28;19917;-68
2022/03/27 05:33:57;;;;;;;;;;;5.90;99.90;;;;;;5033852;28;19928;-69
2022/03/27 05:36:23;;;;;;;;;;;5.90;99.90;;;;;;5033794;28;19917;-68
2022/03/27 05:38:49;;;;;;;;;;;6.00;99.90;;;;;;5033310;28;19924;-68
2022/03/27 05:41:14;;;;;;;;;;;6.00;99.90;;;;;;5032638;28;19925;-68
2022/03/27 05:43:41;;;;;;;;;;;5.90;99.90;;;;;;5032142;28;19917;-68
2022/03/27 05:46:07;;;;;;;;;;;6.00;99.90;;;;;;5033656;28;19921;-69
2022/03/27 05:48:32;;;;;;;;;;;6.10;99.90;;;;;;5032623;28;20402;-68
2022/03/27 05:50:58;;;;;;;;;;;6.10;99.90;;;;;;5033365;28;19917;-69
2022/03/27 05:53:23;;;;;;;;;;;6.20;99.90;;;;;;5032025;28;19953;-68
2022/03/27 05:55:49;;;;;;;;;;;6.10;99.90;;;;;;5033245;28;20509;-68
2022/03/27 05:58:16;;;;;;;;;;;6.20;99.90;;;;;;5031859;28;19921;-68
2022/03/27 06:00:42;;;;;;;;;;;6.20;99.90;;;;;;5033125;28;19917;-68
2022/03/27 06:03:07;;;;;;;;;;;6.20;99.90;;;;;;5031987;28;20343;-69
2022/03/27 06:05:33;;;;;;;;;;;6.20;99.90;;;;;;5033197;28;19963;-68
2022/03/27 06:07:59;;;;;;;;;;;6.20;99.90;;;;;;5033167;28;20369;-69
2022/03/27 06:10:26;;;;;;;;;;;6.30;99.90;;;;;;5032692;28;19956;-68
2022/03/27 06:12:52;;;;;;;;;;;6.30;99.90;;;;;;5032865;28;20015;-68
2022/03/27 06:15:18;;;;;;;;;;;6.30;99.90;;;;;;5033108;28;20444;-68
2022/03/27 06:17:48;;;;;;;;;;;6.40;99.90;;;;;;5032970;28;19917;-68
2022/03/27 06:20:18;;;;;;;;;;;6.40;99.90;;;;;;5032133;28;20299;-67
2022/03/27 06:22:44;;;;;;;;;;;6.50;99.90;;;;;;5014388;28;19918;-68
2022/03/27 06:25:14;;;;;;;;;;;6.50;99.90;;;;;;5011936;28;19925;-68
2022/03/27 06:27:39;;;;;;;;;;;6.50;99.90;;;;;;5012307;28;19925;-69
2022/03/27 06:30:06;;;;;;;;;;;6.40;99.90;;;;;;5011825;28;20000;-68
2022/03/27 06:32:31;;;;;;;;;;;6.40;99.90;;;;;;5010813;28;19922;-68
2022/03/27 06:34:57;;;;;;;;;;;6.40;99.90;;;;;;5011392;28;19926;-68
2022/03/27 06:37:23;;;;;;;;;;;6.30;99.90;;;;;;5024814;28;19924;-68
2022/03/27 06:39:49;;;;;;;;;;;6.40;99.90;;;;;;5031166;28;19917;-68
2022/03/27 06:42:15;;;;;;;;;;;6.50;99.90;;;;;;5031581;28;19939;-68
2022/03/27 06:44:40;;;;;;;;;;;6.50;99.90;;;;;;5031977;28;19921;-68
2022/03/27 06:47:07;;;;;;;;;;;6.50;99.90;;;;;;5031606;28;20495;-68
2022/03/27 06:49:32;;;;;;;;;;;6.60;99.90;;;;;;5031019;28;20328;-68
2022/03/27 06:51:58;;;;;;;;;;;6.70;99.90;;;;;;5031413;28;19920;-68
2022/03/27 06:54:24;;;;;;;;;;;6.70;99.90;;;;;;5031507;28;19991;-68
2022/03/27 06:56:49;;;;;;;;;;;6.70;99.90;;;;;;5032306;28;19921;-68
2022/03/27 06:59:14;;;;;;;;;;;6.70;99.90;;;;;;5031110;28;19921;-69
2022/03/27 07:04:24;;;;;;;;;;;6.80;99.90;;;;;;5012334;28;19928;-69
2022/03/27 07:06:50;;;;;;;;;;;6.80;99.90;;;;;;5035522;28;19917;-69
2022/03/27 07:09:15;;;;;;;;;;;6.80;99.90;;;;;;5036782;28;20004;-67
2022/03/27 07:11:41;;;;;;;;;;;6.90;99.90;;;;;;5032008;28;19917;-68
2022/03/27 07:14:07;;;;;;;;;;;6.90;99.90;;;;;;5030466;28;19925;-67
2022/03/27 07:16:32;;;;;;;;;;;6.90;99.90;;;;;;5031723;28;19917;-68
2022/03/27 07:18:58;;;;;;;;;;;6.90;99.90;;;;;;5031274;28;20050;-68
2022/03/27 07:21:24;;;;;;;;;;;7.00;99.90;;;;;;5031613;28;19921;-68
2022/03/27 07:23:49;;;;;;;;;;;7.00;99.90;;;;;;5032320;28;19928;-69
2022/03/27 07:26:17;;;;;;;;;;;7.00;99.90;;;;;;5037853;28;19999;-68
2022/03/27 07:28:43;;;;;;;;;;;7.10;99.90;;;;;;5031428;28;19917;-68
2022/03/27 07:31:11;;;;;;;;;;;7.10;99.90;;;;;;5030483;28;19940;-68
2022/03/27 07:33:37;;;;;;;;;;;7.10;99.90;;;;;;5031601;28;19928;-68
2022/03/27 07:36:03;;;;;;;;;;;7.10;99.90;;;;;;5031437;28;20281;-68
2022/03/27 07:38:28;;;;;;;;;;;7.20;99.90;;;;;;5029944;28;19916;-68
2022/03/27 07:40:54;;;;;;;;;;;7.20;99.90;;;;;;5031601;28;19975;-67
2022/03/27 07:43:21;;;;;;;;;;;7.20;99.90;;;;;;5031585;28;19975;-68
2022/03/27 07:45:46;;;;;;;;;;;7.30;99.90;;;;;;5031399;28;20697;-67
2022/03/27 07:48:12;;;;;;;;;;;7.30;99.90;;;;;;5031495;28;19917;-68
2022/03/27 07:50:38;;;;;;;;;;;7.30;99.90;;;;;;5030787;28;20371;-67
2022/03/27 07:53:04;;;;;;;;;;;7.30;99.90;;;;;;5031339;28;20012;-67
2022/03/27 07:55:30;;;;;;;;;;;7.40;99.90;;;;;;5031451;28;19975;-67
2022/03/27 07:57:56;;;;;;;;;;;7.40;99.90;;;;;;5031458;28;19916;-67
2022/03/27 08:00:22;;;;;;;;;;;7.40;99.90;;;;;;5030812;28;19917;-67
2022/03/27 08:02:47;;;;;;;;;;;7.50;99.90;;;;;;5031241;28;19921;-67
2022/03/27 08:05:13;;;;;;;;;;;7.50;99.90;;;;;;5031183;28;19924;-68
2022/03/27 08:07:38;;;;;;;;;;;7.50;99.90;;;;;;5031409;28;19924;-68
2022/03/27 08:10:05;;;;;;;;;;;7.50;99.90;;;;;;5030967;28;19996;-68
2022/03/27 08:12:30;;;;;;;;;;;7.60;99.90;;;;;;5034259;28;19917;-67
2022/03/27 08:14:56;;;;;;;;;;;7.60;99.90;;;;;;5034932;28;19921;-67
2022/03/27 08:17:21;;;;;;;;;;;7.60;99.90;;;;;;5035124;28;19924;-68
2022/03/27 08:19:49;;;;;;;;;;;7.70;99.90;;;;;;5034519;28;19974;-69
2022/03/27 08:22:14;;;;;;;;;;;7.70;99.90;;;;;;5017359;28;20460;-68
2022/03/27 08:24:40;;;;;;;;;;;7.90;99.90;;;;;;5035071;28;19951;-68
2022/03/27 08:27:07;;;;;;;;;;;7.90;99.90;;;;;;5034899;28;20406;-67
2022/03/27 08:29:37;;;;;;;;;;;8.00;99.90;;;;;;5034449;28;20351;-67
2022/03/27 08:32:04;;;;;;;;;;;8.10;99.90;;;;;;5034584;28;19961;-68
2022/03/27 08:34:31;;;;;;;;;;;8.20;99.90;;;;;;5034793;28;19925;-67
2022/03/27 08:36:57;;;;;;;;;;;8.30;99.90;;;;;;5034942;28;19923;-68
2022/03/27 08:39:23;;;;;;;;;;;8.30;99.90;;;;;;5033772;28;20415;-68
2022/03/27 08:41:49;;;;;;;;;;;8.40;99.90;;;;;;5034770;28;19916;-66
2022/03/27 08:44:18;;;;;;;;;;;8.40;99.90;;;;;;5034631;28;19921;-67
2022/03/27 08:48:00;;;;;;;;;;;8.60;99.90;;;;;;5129821;27;20302;-68
2022/03/27 08:50:31;;;;;;;;;;;8.70;99.90;;;;;;5129397;28;20452;-67
2022/03/27 08:53:01;;;;;;;;;;;8.60;99.90;;;;;;5129671;27;20002;-68
2022/03/27 08:55:40;;;;;;;;;;;8.60;99.90;;;;;;5111222;27;19951;-68
2022/03/27 08:58:08;;;;;;;;;;;8.70;99.90;;;;;;5108968;28;19916;-68
2022/03/27 09:00:33;;;;;;;;;;;8.70;99.90;;;;;;5116202;28;19922;-68
2022/03/27 09:03:00;;;;;;;;;;;8.80;99.90;;;;;;5118416;27;20319;-69
2022/03/27 09:05:26;;;;;;;;;;;8.80;99.90;;;;;;5117627;27;19916;-68
2022/03/27 09:07:53;;;;;;;;;;;8.90;99.90;;;;;;5109723;28;20348;-66
2022/03/27 09:10:18;;;;;;;;;;;8.80;99.90;;;;;;5118041;28;20437;-68
2022/03/27 09:12:44;;;;;;;;;;;8.80;99.90;;;;;;5121228;27;20006;-68
2022/03/27 09:15:10;;;;;;;;;;;8.90;99.90;;;;;;5120410;27;19920;-68
2022/03/27 09:17:53;;;;;;;;;;;8.80;99.90;;;;;;5120798;28;20309;-68
2022/03/27 09:20:28;;;;;;;;;;;8.90;99.90;;;;;;5118926;28;19920;-68
2022/03/27 09:22:54;;;;;;;;;;;8.90;99.90;;;;;;5120136;27;19983;-68
2022/03/27 09:25:19;;;;;;;;;;;8.90;99.90;;;;;;5119359;27;19919;-68
2022/03/27 09:27:45;;;;;;;;;;;8.90;99.90;;;;;;5119280;28;19920;-68
2022/03/27 09:30:11;;;;;;;;;;;9.00;99.90;;;;;;5115682;27;19922;-68
2022/03/27 09:32:38;;;;;;;;;;;9.00;99.90;;;;;;5116939;28;19960;-68
2022/03/27 09:35:14;;;;;;;;;;;9.10;99.90;;;;;;5118915;27;19922;-69
2022/03/27 09:37:46;;;;;;;;;;;9.10;99.90;;;;;;5117567;28;19920;-68
2022/03/27 09:40:13;;;;;;;;;;;9.20;99.90;;;;;;5114055;27;19942;-69
2022/03/27 09:42:39;;;;;;;;;;;9.20;99.90;;;;;;5108248;28;20442;-69
2022/03/27 09:45:13;;;;;;;;;;;9.30;99.90;;;;;;5108157;28;19926;-69
2022/03/27 09:47:39;;;;;;;;;;;9.50;99.90;;;;;;5107995;28;19924;-69
2022/03/27 09:50:05;;;;;;;;;;;9.50;99.90;;;;;;5107853;28;19915;-69
2022/03/27 09:52:30;;;;;;;;;;;9.50;99.90;;;;;;5108015;28;19927;-69
2022/03/27 09:54:57;;;;;;;;;;;9.50;99.90;;;;;;5108108;28;19915;-69
2022/03/27 09:57:32;;;;;;;;;;;9.60;99.90;;;;;;5105801;28;20391;-69
2022/03/27 09:59:59;;;;;;;;;;;9.70;99.90;;;;;;5094165;28;19923;-69
2022/03/27 10:02:26;;;;;;;;;;;9.70;99.90;;;;;;5094345;28;19922;-69
2022/03/27 10:05:10;;;;;;;;;;;9.80;99.90;;;;;;5093163;28;19966;-70
2022/03/27 10:07:38;;;;;;;;;;;9.90;99.90;;;;;;5098404;28;19920;-70
2022/03/27 10:10:05;;;;;;;;;;;9.90;99.90;;;;;;5103715;28;19920;-70
2022/03/27 10:12:33;;;;;;;;;;;9.90;99.90;;;;;;5103359;27;20011;-70
2022/03/27 10:15:00;;;;;;;;;;;10.10;99.90;;;;;;5101971;28;19916;-71
2022/03/27 10:17:27;;;;;;;;;;;10.20;99.90;;;;;;5093014;28;19923;-70
2022/03/27 10:20:22;;;;;;;;;;;10.10;99.90;;;;;;5093742;28;20026;-70
2022/03/27 10:22:52;;;;;;;;;;;10.10;99.90;;;;;;5034642;28;20007;-70
2022/03/27 10:25:18;;;;;;;;;;;10.30;99.90;;;;;;5034984;28;19916;-69
2022/03/27 10:27:45;;;;;;;;;;;10.30;99.90;;;;;;5051216;28;19931;-69
2022/03/27 10:30:11;;;;;;;;;;;10.30;99.90;;;;;;5050915;28;20014;-69
2022/03/27 10:32:38;;;;;;;;;;;10.30;99.90;;;;;;5034701;28;20390;-70
2022/03/27 10:35:15;;;;;;;;;;;10.30;99.90;;;;;;5051086;28;20335;-70
2022/03/27 10:37:59;;;;;;;;;;;10.40;99.90;;;;;;5034455;28;19917;-70
2022/03/27 10:40:34;;;;;;;;;;;10.70;99.90;;;;;;5033926;28;19928;-70
2022/03/27 10:43:06;;;;;;;;;;;10.80;99.90;;;;;;5050817;28;20642;-70
2022/03/27 10:45:32;;;;;;;;;;;10.80;99.90;;;;;;5034153;28;19916;-69
2022/03/27 10:48:07;;;;;;;;;;;10.90;99.90;;;;;;5050910;28;19928;-70
2022/03/27 10:50:43;;;;;;;;;;;10.90;99.90;;;;;;5050360;28;19920;-69
2022/03/27 10:53:09;;;;;;;;;;;10.90;99.90;;;;;;5050773;28;20322;-69
2022/03/27 10:55:39;;;;;;;;;;;10.90;99.90;;;;;;5050795;28;20137;-69
2022/03/27 10:58:23;;;;;;;;;;;11.00;99.90;;;;;;5035468;28;20065;-70
2022/03/27 11:00:49;;;;;;;;;;;11.00;99.90;;;;;;5093374;28;19923;-70
2022/03/27 11:03:34;;;;;;;;;;;11.00;99.90;;;;;;5094292;28;20000;-69
2022/03/27 11:06:00;;;;;;;;;;;11.00;99.90;;;;;;5097313;28;19931;-68
2022/03/27 11:08:26;;;;;;;;;;;11.30;99.90;;;;;;5108086;28;19916;-69
2022/03/27 11:10:54;;;;;;;;;;;11.10;99.90;;;;;;5105434;28;19973;-69
2022/03/27 11:13:30;;;;;;;;;;;11.30;99.90;;;;;;5105841;28;19920;-69
2022/03/27 11:16:05;;;;;;;;;;;11.50;99.90;;;;;;5096671;28;19961;-70
2022/03/27 11:18:37;;;;;;;;;;;11.40;99.90;;;;;;5092527;28;19919;-70
2022/03/27 11:21:03;;;;;;;;;;;11.40;99.90;;;;;;5092669;28;19926;-70
2022/03/27 11:23:30;;;;;;;;;;;11.40;99.90;;;;;;5092892;28;19915;-70
2022/03/27 11:25:56;;;;;;;;;;;11.70;99.90;;;;;;5092900;28;19916;-70
2022/03/27 11:28:22;;;;;;;;;;;11.50;99.90;;;;;;5091575;28;19935;-70
2022/03/27 11:30:47;;;;;;;;;;;11.50;99.90;;;;;;5091200;28;20287;-70
2022/03/27 11:33:13;;;;;;;;;;;11.60;99.90;;;;;;5091432;28;19924;-70
2022/03/27 11:35:40;;;;;;;;;;;11.80;99.90;;;;;;5092805;28;19960;-70
2022/03/27 11:38:25;;;;;;;;;;;11.80;99.90;;;;;;5092476;28;19965;-70
2022/03/27 11:40:51;;;;;;;;;;;11.90;99.90;;;;;;5092586;28;20294;-71
2022/03/27 11:43:27;;;;;;;;;;;12.00;99.90;;;;;;5104709;28;20010;-71
2022/03/27 11:45:54;;;;;;;;;;;11.90;99.90;;;;;;5112094;28;20551;-71
2022/03/27 11:48:20;;;;;;;;;;;12.10;99.90;;;;;;5111999;28;19920;-71
2022/03/27 11:50:45;;;;;;;;;;;12.10;99.90;;;;;;5112141;28;19915;-71
2022/03/27 11:53:11;;;;;;;;;;;12.20;99.90;;;;;;5112033;28;20375;-71
2022/03/27 11:55:37;;;;;;;;;;;12.30;99.90;;;;;;5093969;28;19942;-71
2022/03/27 11:58:03;;;;;;;;;;;12.40;99.90;;;;;;5112080;28;20303;-71
2022/03/27 12:00:31;;;;;;;;;;;12.40;99.90;;;;;;5111616;28;19916;-72
2022/03/27 12:02:58;;;;;;;;;;;12.30;99.90;;;;;;5111782;28;20000;-71
2022/03/27 12:05:31;;;;;;;;;;;12.50;99.90;;;;;;5112045;28;20375;-71
2022/03/27 12:07:57;;;;;;;;;;;12.50;99.90;;;;;;5108727;28;19942;-71
2022/03/27 12:10:23;;;;;;;;;;;12.40;99.90;;;;;;5101249;28;20367;-71
2022/03/27 12:12:56;;;;;;;;;;;12.40;99.90;;;;;;5091801;28;19946;-70
2022/03/27 12:15:21;;;;;;;;;;;12.70;99.90;;;;;;5092045;28;19923;-71
2022/03/27 12:17:47;;;;;;;;;;;12.60;99.90;;;;;;5092717;28;20363;-71
2022/03/27 12:20:13;;;;;;;;;;;12.60;98.90;;;;;;5103221;28;19920;-69
2022/03/27 12:22:38;;;;;;;;;;;12.70;94.80;;;;;;5103430;28;20011;-71
2022/03/27 12:25:07;;;;;;;;;;;12.70;94.90;;;;;;5101281;28;19920;-70
2022/03/27 12:30:17;;;;;;;;;;;12.80;97.40;;;;;;5091817;28;19961;-71
2022/03/27 12:32:42;;;;;;;;;;;12.80;95.10;;;;;;5091357;28;19916;-71
2022/03/27 12:35:08;;;;;;;;;;;12.80;95.80;;;;;;5091572;28;19920;-71
2022/03/27 12:37:42;;;;;;;;;;;12.80;91.20;;;;;;5090356;28;19920;-71
2022/03/27 12:40:08;;;;;;;;;;;13.00;85.70;;;;;;5091258;28;19920;-71
2022/03/27 12:42:35;;;;;;;;;;;13.00;90.40;;;;;;5098603;28;19915;-70
2022/03/27 12:45:06;;;;;;;;;;;13.20;92.20;;;;;;5111842;28;19915;-71
2022/03/27 12:47:42;;;;;;;;;;;13.10;91.30;;;;;;5111056;28;21210;-71
2022/03/27 12:50:37;;;;;;;;;;;13.20;91.80;;;;;;5110372;28;19916;-71
2022/03/27 12:53:26;;;;;;;;;;;13.10;92.80;;;;;;5103333;28;19915;-71
2022/03/27 12:55:53;;;;;;;;;;;13.20;91.40;;;;;;5106263;28;19972;-71
2022/03/27 12:58:20;;;;;;;;;;;13.40;94.70;;;;;;5111255;28;19916;-71
2022/03/27 13:00:46;;;;;;;;;;;13.40;90.80;;;;;;5110135;28;19920;-71
2022/03/27 13:03:16;;;;;;;;;;;13.50;91.10;;;;;;5108220;28;20060;-70
2022/03/27 13:05:58;;;;;;;;;;;13.40;87.60;;;;;;5110753;28;20286;-70
2022/03/27 13:08:29;;;;;;;;;;;13.40;78.10;;;;;;5110025;28;20367;-71
2022/03/27 13:11:06;;;;;;;;;;;13.60;72.40;;;;;;5111135;28;19926;-71
2022/03/27 13:13:38;;;;;;;;;;;13.60;75.90;;;;;;5111852;28;19916;-71
2022/03/27 13:16:17;;;;;;;;;;;13.60;79.80;;;;;;5111806;28;19916;-71
2022/03/27 13:18:42;;;;;;;;;;;13.80;77.90;;;;;;5092986;28;19926;-71
2022/03/27 13:21:14;;;;;;;;;;;13.90;78.90;;;;;;5110289;28;19916;-71
2022/03/27 13:23:40;;;;;;;;;;;13.70;70.70;;;;;;5111636;28;19920;-71
2022/03/27 13:26:05;;;;;;;;;;;13.70;79.40;;;;;;5111628;28;19919;-71
2022/03/27 13:28:31;;;;;;;;;;;13.80;73.20;;;;;;5109820;28;19915;-71
2022/03/27 13:30:56;;;;;;;;;;;13.70;68.10;;;;;;5111446;28;19922;-71
2022/03/27 13:33:23;;;;;;;;;;;13.90;67.30;;;;;;5111733;28;19920;-71
2022/03/27 13:35:49;;;;;;;;;;;13.90;72.10;;;;;;5115192;28;19919;-71
2022/03/27 13:38:15;;;;;;;;;;;13.90;67.90;;;;;;5115486;28;19920;-71
2022/03/27 13:43:25;;;;;;;;;;;13.80;64.60;;;;;;5115269;28;20375;-71
2022/03/27 13:45:50;;;;;;;;;;;13.80;64.90;;;;;;5114932;28;19915;-71
2022/03/27 13:48:15;;;;;;;;;;;13.80;66.00;;;;;;5115036;28;19969;-71
2022/03/27 13:50:41;;;;;;;;;;;13.90;65.40;;;;;;5115007;28;20293;-71
2022/03/27 13:53:07;;;;;;;;;;;14.10;64.00;;;;;;5115253;28;19920;-71
2022/03/27 13:55:32;;;;;;;;;;;14.10;60.30;;;;;;5114905;28;19964;-71
2022/03/27 13:57:58;;;;;;;;;;;14.00;62.60;;;;;;5113728;28;19923;-71
2022/03/27 14:00:23;;;;;;;;;;;14.00;63.90;;;;;;5114579;28;19947;-71
2022/03/27 14:02:49;;;;;;;;;;;14.20;67.80;;;;;;5114832;28;20505;-71
2022/03/27 14:05:15;;;;;;;;;;;14.20;61.00;;;;;;5115052;28;20006;-71
2022/03/27 14:07:41;;;;;;;;;;;14.10;60.90;;;;;;5113364;28;20286;-71
2022/03/27 14:10:06;;;;;;;;;;;14.30;63.50;;;;;;5114562;28;19923;-71
2022/03/27 14:12:33;;;;;;;;;;;14.30;64.50;;;;;;5113377;28;19927;-71
2022/03/27 14:14:58;;;;;;;;;;;14.30;63.00;;;;;;5114727;27;19923;-71
2022/03/27 14:17:24;;;;;;;;;;;14.40;63.20;;;;;;5113498;28;20595;-71
2022/03/27 14:19:50;;;;;;;;;;;14.40;63.60;;;;;;5114098;28;19920;-71
2022/03/27 14:22:15;;;;;;;;;;;14.40;63.50;;;;;;5112791;28;19920;-70
2022/03/27 14:24:41;;;;;;;;;;;14.40;63.80;;;;;;5113030;28;19916;-71
2022/03/27 14:27:06;;;;;;;;;;;14.40;60.60;;;;;;5114177;28;19920;-71
2022/03/27 14:29:33;;;;;;;;;;;14.40;60.30;;;;;;5113861;28;19972;-71
2022/03/27 14:31:58;;;;;;;;;;;14.30;60.30;;;;;;5114052;28;19969;-71
2022/03/27 14:34:24;;;;;;;;;;;14.40;64.60;;;;;;5114510;28;19920;-71